createdAt,value
2019-04-13T00:01:28.169Z,13.67
2019-04-13T00:03:58.542Z,13.73
2019-04-13T00:06:35.781Z,13.40
2019-04-13T00:09:08.403Z,14.83
2019-04-13T00:11:50.869Z,12.10
2019-04-13T00:14:21.573Z,15.10
2019-04-13T00:16:52.145Z,14.73
2019-04-13T00:19:22.804Z,15.07
2019-04-13T00:21:53.187Z,11.73
2019-04-13T00:24:23.685Z,17.07
2019-04-13T00:26:54.141Z,15.53
2019-04-13T00:29:24.767Z,14.70
2019-04-13T00:31:55.403Z,16.23
2019-04-13T00:34:25.772Z,15.30
2019-04-13T00:36:56.101Z,13.97
2019-04-13T00:39:26.604Z,14.27
2019-04-13T00:41:57.101Z,15.50
2019-04-13T00:44:27.774Z,14.00
2019-04-13T00:46:58.372Z,15.87
2019-04-13T00:49:29.058Z,15.83
2019-04-13T00:51:59.481Z,16.30
2019-04-13T00:54:30.061Z,15.30
2019-04-13T00:57:00.387Z,15.97
2019-04-13T00:59:30.934Z,17.30
2019-04-13T01:02:01.565Z,16.60
2019-04-13T01:04:32.093Z,17.10
2019-04-13T01:07:02.640Z,20.83
2019-04-13T01:09:33.234Z,15.83
2019-04-13T01:12:03.860Z,14.50
2019-04-13T01:14:34.515Z,16.07
2019-04-13T01:17:05.129Z,20.00
2019-04-13T01:19:35.600Z,18.77
2019-04-13T01:22:06.101Z,17.23
2019-04-13T01:24:36.945Z,18.40
2019-04-13T01:27:07.484Z,18.70
2019-04-13T01:29:38.017Z,17.47
2019-04-13T01:32:08.986Z,14.17
2019-04-13T01:34:39.577Z,19.70
2019-04-13T01:37:10.169Z,18.20
2019-04-13T01:39:40.629Z,16.80
2019-04-13T01:42:10.949Z,18.07
2019-04-13T01:44:41.476Z,15.53
2019-04-13T01:47:11.987Z,18.80
2019-04-13T01:49:42.458Z,17.13
2019-04-13T01:52:13.062Z,17.70
2019-04-13T01:54:44.337Z,18.27
2019-04-13T01:57:14.920Z,18.67
2019-04-13T01:59:45.377Z,15.53
2019-04-13T02:02:29.922Z,14.53
2019-04-13T02:05:39.550Z,16.50
2019-04-13T02:08:15.038Z,17.03
2019-04-13T02:10:47.462Z,13.83
2019-04-13T02:13:17.996Z,15.13
2019-04-13T02:15:48.645Z,17.53
2019-04-13T02:18:19.258Z,15.60
2019-04-13T02:20:49.743Z,14.43
2019-04-13T02:23:20.226Z,20.30
2019-04-13T02:25:50.775Z,15.33
2019-04-13T02:28:21.208Z,17.20
2019-04-13T02:30:51.857Z,16.20
2019-04-13T02:33:22.462Z,19.13
2019-04-13T02:35:53.113Z,19.43
2019-04-13T02:38:23.814Z,16.30
2019-04-13T02:40:54.383Z,16.90
2019-04-13T02:43:24.957Z,17.10
2019-04-13T02:45:55.513Z,15.67
2019-04-13T02:48:25.890Z,16.37
2019-04-13T02:50:56.286Z,16.33
2019-04-13T02:53:26.654Z,15.97
2019-04-13T02:55:57.542Z,15.67
2019-04-13T02:58:28.133Z,16.87
2019-04-13T03:00:58.789Z,19.47
2019-04-13T03:03:29.391Z,20.00
2019-04-13T03:05:59.840Z,15.47
2019-04-13T03:08:30.245Z,19.80
2019-04-13T03:11:00.829Z,17.77
2019-04-13T03:13:31.321Z,15.03
2019-04-13T03:16:06.952Z,18.00
2019-04-13T03:18:42.704Z,17.90
2019-04-13T03:21:13.297Z,14.73
2019-04-13T03:23:43.881Z,14.57
2019-04-13T03:26:14.495Z,18.00
2019-04-13T03:28:44.993Z,17.93
2019-04-13T03:31:15.583Z,10.07
2019-04-13T03:33:46.097Z,20.00
2019-04-13T03:36:16.756Z,14.23
2019-04-13T03:38:47.145Z,13.00
2019-04-13T03:41:17.717Z,16.20
2019-04-13T03:43:48.289Z,14.43
2019-04-13T03:46:18.945Z,16.27
2019-04-13T03:48:50.271Z,15.17
2019-04-13T03:51:20.925Z,14.53
2019-04-13T03:53:51.538Z,18.10
2019-04-13T03:56:22.202Z,16.13
2019-04-13T03:58:52.801Z,15.20
2019-04-13T04:01:23.665Z,16.37
2019-04-13T04:03:54.187Z,14.27
2019-04-13T04:06:24.854Z,16.63
2019-04-13T04:08:55.327Z,16.90
2019-04-13T04:11:25.774Z,16.63
2019-04-13T04:13:56.202Z,17.57
2019-04-13T04:16:26.798Z,16.23
2019-04-13T04:18:56.623Z,14.07
2019-04-13T04:21:27.367Z,16.27
2019-04-13T04:23:58.003Z,16.53
2019-04-13T04:26:28.669Z,17.43
2019-04-13T04:28:59.271Z,20.10
2019-04-13T04:31:29.951Z,19.13
2019-04-13T04:34:00.458Z,16.17
2019-04-13T04:36:30.914Z,16.07
2019-04-13T04:39:01.378Z,16.17
2019-04-13T04:41:31.893Z,15.90
2019-04-13T04:44:02.443Z,16.17
2019-04-13T04:46:32.890Z,16.47
2019-04-13T04:49:03.421Z,17.73
2019-04-13T04:51:33.903Z,14.33
2019-04-13T04:54:04.783Z,15.00
2019-04-13T04:56:35.348Z,13.67
2019-04-13T04:59:05.923Z,16.13
2019-04-13T05:01:36.585Z,19.53
2019-04-13T05:04:06.854Z,18.73
2019-04-13T05:06:37.784Z,16.40
2019-04-13T05:09:07.504Z,15.10
2019-04-13T05:11:38.366Z,16.50
2019-04-13T05:14:08.861Z,15.87
2019-04-13T05:16:39.338Z,17.70
2019-04-13T05:19:09.969Z,19.93
2019-04-13T05:21:40.510Z,19.53
2019-04-13T05:24:11.009Z,16.00
2019-04-13T05:26:41.402Z,17.50
2019-04-13T05:29:11.860Z,13.23
2019-04-13T05:31:42.405Z,17.60
2019-04-13T05:34:13.037Z,18.70
2019-04-13T05:36:47.888Z,18.67
2019-04-13T05:39:14.405Z,18.00
2019-04-13T05:41:44.881Z,17.13
2019-04-13T05:44:15.335Z,18.47
2019-04-13T05:46:45.917Z,15.07
2019-04-13T05:49:16.498Z,18.93
2019-04-13T05:51:47.177Z,18.23
2019-04-13T05:54:17.776Z,19.47
2019-04-13T05:56:48.364Z,18.13
2019-04-13T05:59:21.150Z,16.13
2019-04-13T06:01:49.451Z,21.67
2019-04-13T06:04:20.083Z,21.60
2019-04-13T06:06:59.774Z,15.70
2019-04-13T06:09:22.082Z,16.70
2019-04-13T06:11:52.557Z,18.80
2019-04-13T06:14:23.011Z,17.20
2019-04-13T06:16:53.677Z,18.20
2019-04-13T06:19:24.073Z,16.43
2019-04-13T06:21:54.553Z,16.53
2019-04-13T06:24:25.030Z,17.70
2019-04-13T06:26:56.427Z,20.63
2019-04-13T06:29:26.865Z,20.87
2019-04-13T06:32:07.368Z,19.23
2019-04-13T06:34:50.800Z,43.07
2019-04-13T06:37:21.229Z,21.23
2019-04-13T06:39:51.625Z,17.63
2019-04-13T06:42:21.421Z,18.57
2019-04-13T06:44:51.793Z,24.73
2019-04-13T06:47:22.242Z,98.00
2019-04-13T06:49:52.613Z,34.43
2019-04-13T06:52:23.505Z,38.50
2019-04-13T06:54:54.004Z,46.00
2019-04-13T06:57:25.987Z,33.47
2019-04-13T06:59:54.914Z,33.50
2019-04-13T07:02:25.417Z,20.57
2019-04-13T07:04:56.533Z,23.43
2019-04-13T07:07:45.146Z,21.80
2019-04-13T07:10:13.461Z,19.47
2019-04-13T07:12:48.733Z,18.53
2019-04-13T07:15:19.313Z,19.77
2019-04-13T07:17:49.774Z,23.47
2019-04-13T07:20:20.261Z,34.23
2019-04-13T07:22:53.807Z,22.27
2019-04-13T07:25:21.314Z,18.03
2019-04-13T07:27:51.136Z,16.20
2019-04-13T07:30:21.553Z,16.50
2019-04-13T07:32:51.356Z,19.23
2019-04-13T07:35:21.598Z,17.80
2019-04-13T07:37:52.178Z,17.20
2019-04-13T07:40:22.648Z,18.37
2019-04-13T07:42:53.148Z,15.77
2019-04-13T07:45:59.061Z,19.23
2019-04-13T07:48:41.672Z,16.23
2019-04-13T07:51:16.094Z,17.87
2019-04-13T07:53:46.951Z,18.27
2019-04-13T07:56:17.413Z,15.67
2019-04-13T07:58:47.976Z,14.93
2019-04-13T08:01:18.497Z,20.13
2019-04-13T08:03:48.945Z,20.70
2019-04-13T08:06:19.469Z,18.70
2019-04-13T08:08:50.226Z,18.93
2019-04-13T08:11:20.661Z,18.40
2019-04-13T08:13:51.173Z,15.40
2019-04-13T08:16:24.830Z,18.47
2019-04-13T08:19:03.481Z,24.40
2019-04-13T08:21:34.407Z,16.67
2019-04-13T08:24:04.805Z,17.83
2019-04-13T08:26:34.568Z,16.73
2019-04-13T08:29:05.085Z,19.30
2019-04-13T08:31:35.521Z,21.63
2019-04-13T08:34:06.466Z,15.60
2019-04-13T08:39:14.407Z,15.43
2019-04-13T08:41:42.841Z,14.23
2019-04-13T08:44:13.330Z,16.53
2019-04-13T08:46:43.769Z,24.63
2019-04-13T08:49:13.577Z,18.97
2019-04-13T08:51:43.938Z,21.53
2019-04-13T08:54:14.932Z,17.13
2019-04-13T08:56:45.635Z,16.03
2019-04-13T08:59:16.148Z,15.30
2019-04-13T09:01:46.658Z,17.10
2019-04-13T09:04:17.226Z,17.73
2019-04-13T09:06:47.596Z,16.93
2019-04-13T09:09:17.418Z,18.67
2019-04-13T09:11:47.829Z,17.37
2019-04-13T09:14:18.624Z,18.07
2019-04-13T09:16:49.354Z,17.07
2019-04-13T09:19:55.176Z,16.17
2019-04-13T09:22:26.842Z,17.77
2019-04-13T09:24:55.527Z,18.70
2019-04-13T09:27:25.921Z,16.47
2019-04-13T09:29:56.431Z,19.67
2019-04-13T09:32:28.175Z,15.60
2019-04-13T09:34:57.441Z,17.83
2019-04-13T09:37:27.817Z,24.53
2019-04-13T09:39:58.317Z,42.83
2019-04-13T09:42:28.818Z,19.60
2019-04-13T09:45:03.492Z,23.27
2019-04-13T09:47:29.672Z,20.67
2019-04-13T09:50:00.275Z,23.67
2019-04-13T09:52:31.544Z,28.13
2019-04-13T09:55:01.884Z,15.30
2019-04-13T09:57:32.374Z,14.40
2019-04-13T10:00:02.200Z,12.47
2019-04-13T10:02:32.621Z,13.23
2019-04-13T10:05:03.184Z,14.57
2019-04-13T10:07:33.957Z,20.30
2019-04-13T10:10:04.000Z,16.87
2019-04-13T10:13:40.189Z,15.87
2019-04-13T10:16:45.535Z,15.93
2019-04-13T10:19:16.053Z,10.87
2019-04-13T10:21:47.046Z,38.07
2019-04-13T10:24:17.314Z,8.97
2019-04-13T10:26:48.549Z,16.83
2019-04-13T10:29:19.343Z,15.40
2019-04-13T10:31:48.829Z,12.83
2019-04-13T10:34:19.339Z,13.47
2019-04-13T10:36:49.784Z,12.40
2019-04-13T10:39:20.446Z,12.73
2019-04-13T10:41:53.125Z,15.40
2019-04-13T10:44:21.397Z,15.80
2019-04-13T10:46:56.794Z,14.13
2019-04-13T10:49:34.744Z,11.20
2019-04-13T10:52:05.831Z,13.87
2019-04-13T10:54:36.241Z,18.23
2019-04-13T10:57:08.361Z,17.10
2019-04-13T10:59:38.829Z,16.73
2019-04-13T11:02:09.437Z,18.73
2019-04-13T11:04:39.880Z,18.83
2019-04-13T11:07:10.242Z,13.23
2019-04-13T11:09:40.745Z,15.57
2019-04-13T11:12:11.254Z,23.83
2019-04-13T11:14:41.821Z,23.37
2019-04-13T11:17:12.754Z,14.13
2019-04-13T11:19:43.192Z,21.33
2019-04-13T11:22:13.753Z,38.13
2019-04-13T11:24:44.225Z,15.37
2019-04-13T11:27:14.677Z,17.80
2019-04-13T11:29:45.103Z,18.17
2019-04-13T11:32:15.672Z,19.10
2019-04-13T11:34:46.233Z,15.33
2019-04-13T11:37:16.537Z,14.90
2019-04-13T11:39:47.000Z,26.33
2019-04-13T11:43:21.952Z,35.73
2019-04-13T11:45:58.633Z,44.20
2019-04-13T11:48:37.380Z,25.83
2019-04-13T11:51:11.677Z,22.47
2019-04-13T11:53:42.399Z,20.40
2019-04-13T11:56:13.234Z,40.23
2019-04-13T11:58:44.489Z,40.97
2019-04-13T12:01:53.715Z,47.23
2019-04-13T12:05:32.955Z,21.90
2019-04-13T12:08:05.661Z,22.77
2019-04-13T12:11:38.729Z,26.33
2019-04-13T12:14:13.354Z,22.10
2019-04-13T12:16:48.562Z,21.47
2019-04-13T12:19:26.268Z,19.50
2019-04-13T12:22:02.110Z,17.53
2019-04-13T12:24:33.244Z,40.63
2019-04-13T12:27:03.875Z,23.77
2019-04-13T12:29:36.266Z,25.30
2019-04-13T12:32:04.227Z,20.27
2019-04-13T12:34:34.585Z,27.03
2019-04-13T12:37:05.182Z,23.43
2019-04-13T12:39:39.350Z,24.93
2019-04-13T12:42:06.370Z,33.50
2019-04-13T12:44:38.153Z,26.77
2019-04-13T12:47:09.908Z,27.37
2019-04-13T12:49:38.241Z,27.47
2019-04-13T12:52:07.943Z,24.37
2019-04-13T12:54:38.127Z,35.17
2019-04-13T12:57:08.754Z,28.27
2019-04-13T12:59:40.767Z,33.97
2019-04-13T13:02:41.633Z,37.93
2019-04-13T13:05:14.243Z,33.03
2019-04-13T13:07:44.744Z,31.33
2019-04-13T13:10:15.844Z,28.93
2019-04-13T13:12:46.462Z,33.47
2019-04-13T13:15:16.401Z,33.03
2019-04-13T13:17:46.905Z,49.07
2019-04-13T13:20:17.690Z,34.83
2019-04-13T13:22:48.131Z,64.30
2019-04-13T13:25:21.293Z,27.97
2019-04-13T13:27:49.205Z,37.43
2019-04-13T13:30:20.648Z,37.30
2019-04-13T13:32:49.514Z,34.50
2019-04-13T13:35:19.957Z,41.17
2019-04-13T13:37:50.795Z,39.63
2019-04-13T13:40:31.224Z,30.00
2019-04-13T13:42:52.552Z,27.63
2019-04-13T13:45:26.008Z,18.77
2019-04-13T13:47:53.757Z,23.53
2019-04-13T13:50:24.217Z,34.33
2019-04-13T13:52:54.966Z,46.23
2019-04-13T13:55:25.459Z,36.40
2019-04-13T13:58:02.396Z,28.10
2019-04-13T14:00:38.861Z,25.83
2019-04-13T14:03:10.230Z,24.93
2019-04-13T14:05:40.222Z,23.23
2019-04-13T14:08:10.749Z,21.83
2019-04-13T14:10:43.203Z,23.67
2019-04-13T14:13:12.333Z,26.47
2019-04-13T14:15:43.049Z,18.83
2019-04-13T14:18:13.705Z,21.57
2019-04-13T14:20:44.413Z,21.97
2019-04-13T14:23:15.073Z,15.07
2019-04-13T14:25:47.525Z,22.77
2019-04-13T14:28:16.659Z,19.13
2019-04-13T14:30:47.459Z,20.03
2019-04-13T14:33:18.250Z,23.87
2019-04-13T14:35:48.824Z,15.47
2019-04-13T14:38:22.847Z,17.83
2019-04-13T14:40:55.853Z,24.33
2019-04-13T14:43:25.108Z,22.90
2019-04-13T14:45:56.508Z,23.07
2019-04-13T14:48:26.216Z,26.07
2019-04-13T14:50:56.691Z,27.77
2019-04-13T14:53:27.124Z,24.83
2019-04-13T14:55:58.122Z,28.20
2019-04-13T14:58:28.437Z,27.17
2019-04-13T15:00:59.023Z,31.77
2019-04-13T15:03:29.577Z,25.10
2019-04-13T15:06:00.094Z,26.40
2019-04-13T15:08:30.517Z,34.23
2019-04-13T15:11:15.993Z,39.57
2019-04-13T15:13:31.758Z,39.07
2019-04-13T15:16:04.739Z,32.33
2019-04-13T15:18:44.652Z,20.10
2019-04-13T15:21:13.309Z,26.87
2019-04-13T15:23:44.553Z,22.70
2019-04-13T15:26:14.750Z,22.50
2019-04-13T15:37:17.453Z,19.57
2019-04-13T15:39:49.673Z,22.57
2019-04-13T15:42:22.713Z,20.70
2019-04-13T15:44:52.180Z,15.47
2019-04-13T15:47:23.887Z,15.37
2019-04-13T15:49:50.790Z,16.67
2019-04-13T15:52:22.192Z,17.10
2019-04-13T15:54:53.583Z,12.67
2019-04-13T15:57:24.225Z,14.27
2019-04-13T15:59:54.064Z,12.50
2019-04-13T16:02:24.992Z,17.57
2019-04-13T16:04:55.956Z,12.67
2019-04-13T16:07:25.781Z,18.60
2019-04-13T16:10:04.605Z,21.27
2019-04-13T16:12:40.582Z,20.00
2019-04-13T16:15:12.088Z,19.13
2019-04-13T16:17:42.270Z,14.63
2019-04-13T16:20:11.925Z,21.33
2019-04-13T16:22:42.938Z,42.37
2019-04-13T16:25:12.794Z,20.10
2019-04-13T16:27:48.795Z,22.60
2019-04-13T16:30:24.012Z,19.93
2019-04-13T16:32:59.905Z,26.80
2019-04-13T16:35:37.027Z,15.63
2019-04-13T16:38:07.651Z,13.27
2019-04-13T16:40:39.289Z,12.73
2019-04-13T16:43:08.858Z,11.97
2019-04-13T16:45:48.530Z,12.50
2019-04-13T16:48:23.730Z,17.77
2019-04-13T16:51:58.229Z,22.00
2019-04-13T16:54:47.487Z,20.87
2019-04-13T16:57:13.294Z,18.77
2019-04-13T16:59:49.490Z,27.40
2019-04-13T17:02:31.988Z,18.73
2019-04-13T17:05:05.726Z,18.43
2019-04-13T17:07:36.475Z,19.50
2019-04-13T17:10:08.684Z,20.50
2019-04-13T17:12:41.662Z,28.80
2019-04-13T17:15:08.974Z,22.40
2019-04-13T17:17:40.542Z,20.60
2019-04-13T17:20:16.271Z,23.60
2019-04-13T17:22:52.013Z,14.73
2019-04-13T17:25:28.558Z,16.67
2019-04-13T17:28:10.947Z,61.90
2019-04-13T17:30:43.241Z,21.13
2019-04-13T17:33:15.407Z,15.20
2019-04-13T17:35:48.464Z,14.57
2019-04-13T17:38:18.460Z,15.53
2019-04-13T17:40:51.408Z,34.90
2019-04-13T17:43:28.713Z,26.37
2019-04-13T17:48:05.365Z,28.70
2019-04-13T17:50:40.884Z,24.43
2019-04-13T17:53:16.270Z,32.73
2019-04-13T17:56:05.215Z,16.50
2019-04-13T17:59:40.725Z,21.93
2019-04-13T18:02:17.590Z,17.60
2019-04-13T18:05:52.145Z,19.17
2019-04-13T18:08:36.772Z,20.27
2019-04-13T18:11:13.116Z,19.77
2019-04-13T18:14:07.158Z,16.53
2019-04-13T18:16:42.184Z,20.73
2019-04-13T18:19:14.808Z,22.03
2019-04-13T18:21:45.273Z,22.47
2019-04-13T18:24:15.584Z,21.17
2019-04-13T18:26:45.792Z,20.90
2019-04-13T18:29:17.401Z,22.93
2019-04-13T18:31:48.261Z,22.83
2019-04-13T18:34:18.451Z,22.10
2019-04-13T18:36:48.690Z,22.73
2019-04-13T18:39:19.143Z,22.33
2019-04-13T18:41:50.553Z,26.27
2019-04-13T18:44:19.544Z,24.93
2019-04-13T18:46:50.013Z,32.90
2019-04-13T18:49:20.765Z,32.67
2019-04-13T18:51:51.357Z,44.63
2019-04-13T18:54:22.270Z,61.53
2019-04-13T18:56:52.725Z,47.97
2019-04-13T18:59:23.699Z,31.03
2019-04-13T19:01:53.905Z,45.03
2019-04-13T19:04:24.502Z,24.90
2019-04-13T19:06:54.838Z,32.87
2019-04-13T19:09:25.401Z,28.20
2019-04-13T19:11:55.998Z,29.27
2019-04-13T19:14:26.449Z,31.97
2019-04-13T19:16:56.957Z,27.70
2019-04-13T19:19:27.866Z,28.10
2019-04-13T19:21:58.524Z,23.97
2019-04-13T19:24:28.998Z,25.77
2019-04-13T19:26:59.904Z,24.60
2019-04-13T19:29:30.541Z,24.40
2019-04-13T19:32:01.179Z,23.93
2019-04-13T19:34:31.753Z,22.33
2019-04-13T19:37:02.208Z,24.33
2019-04-13T19:39:32.805Z,21.60
2019-04-13T19:42:02.550Z,26.07
2019-04-13T19:44:33.025Z,23.63
2019-04-13T19:47:03.613Z,21.33
2019-04-13T19:49:34.166Z,21.43
2019-04-13T19:52:09.889Z,24.50
2019-04-13T19:54:40.785Z,22.83
2019-04-13T19:57:10.432Z,22.83
2019-04-13T19:59:40.909Z,20.50
2019-04-13T20:02:11.553Z,18.30
2019-04-13T20:04:42.253Z,16.97
2019-04-13T20:07:12.673Z,17.17
2019-04-13T20:09:43.334Z,38.73
2019-04-13T20:12:13.838Z,26.60
2019-04-13T20:14:45.703Z,16.50
2019-04-13T20:17:14.989Z,18.50
2019-04-13T20:19:46.108Z,17.17
2019-04-13T20:22:16.646Z,16.47
2019-04-13T20:24:47.098Z,16.90
2019-04-13T20:27:17.803Z,17.43
2019-04-13T20:29:49.139Z,16.53
2019-04-13T20:32:19.170Z,18.57
2019-04-13T20:34:50.885Z,22.20
2019-04-13T20:37:20.913Z,53.60
2019-04-13T20:39:55.304Z,52.77
2019-04-13T20:42:26.835Z,64.00
2019-04-13T20:44:56.683Z,104.30
2019-04-13T20:47:26.642Z,55.90
2019-04-13T20:49:58.118Z,34.27
2019-04-13T20:52:28.710Z,26.30
2019-04-13T20:54:58.441Z,27.13
2019-04-13T20:57:30.275Z,44.20
2019-04-13T21:00:00.748Z,24.00
2019-04-13T21:02:30.924Z,37.37
2019-04-13T21:05:01.412Z,29.27
2019-04-13T21:07:33.443Z,23.93
2019-04-13T21:10:03.141Z,24.00
2019-04-13T21:12:33.742Z,23.53
2019-04-13T21:15:03.653Z,27.40
2019-04-13T21:17:35.317Z,25.13
2019-04-13T21:20:05.556Z,24.70
2019-04-13T21:22:35.937Z,26.87
2019-04-13T21:25:07.664Z,26.87
2019-04-13T21:27:37.766Z,26.50
2019-04-13T21:30:08.216Z,29.97
2019-04-13T21:32:39.853Z,24.67
2019-04-13T21:35:10.010Z,32.77
2019-04-13T21:37:39.924Z,34.03
2019-04-13T21:40:10.501Z,28.57
2019-04-13T21:42:42.350Z,29.13
2019-04-13T21:45:12.477Z,35.83
2019-04-13T21:47:42.695Z,38.03
2019-04-13T21:50:19.426Z,54.80
2019-04-13T21:53:04.916Z,48.90
2019-04-13T21:55:37.700Z,54.93
2019-04-13T21:58:16.394Z,90.47
2019-04-13T22:00:57.468Z,49.03
2019-04-13T22:03:27.657Z,52.13
2019-04-13T22:05:59.427Z,64.43
2019-04-13T22:08:29.513Z,49.00
2019-04-13T22:10:59.916Z,97.43
2019-04-13T22:13:31.720Z,57.93
2019-04-13T22:16:01.697Z,129.23
2019-04-13T22:18:32.229Z,308.40
2019-04-13T22:21:02.674Z,221.43
2019-04-13T22:23:34.517Z,39.10
2019-04-13T22:26:04.560Z,37.90
2019-04-13T22:28:39.612Z,49.13
2019-04-13T22:31:22.023Z,67.50
2019-04-13T22:33:52.438Z,47.57
2019-04-13T22:36:27.333Z,55.40
2019-04-13T22:38:58.753Z,50.27
2019-04-13T22:41:28.861Z,67.50
2019-04-13T22:43:59.029Z,39.13
2019-04-13T22:46:30.314Z,43.63
2019-04-13T22:49:05.965Z,48.17
2019-04-13T22:52:12.754Z,55.03
2019-04-13T22:54:51.648Z,51.23
2019-04-13T22:57:25.837Z,56.10
2019-04-13T22:59:56.051Z,151.33
2019-04-13T23:02:32.012Z,195.13
2019-04-13T23:05:02.574Z,97.87
2019-04-13T23:07:32.780Z,73.07
2019-04-13T23:10:03.397Z,58.93
2019-04-13T23:12:33.942Z,55.80
2019-04-13T23:15:14.094Z,60.47
2019-04-13T23:17:35.505Z,45.67
2019-04-13T23:20:06.438Z,49.53
2019-04-13T23:22:37.158Z,41.50
2019-04-13T23:25:07.784Z,47.80
2019-04-13T23:27:39.350Z,46.57
2019-04-13T23:30:09.490Z,45.60
2019-04-13T23:32:40.168Z,44.23
2019-04-13T23:35:10.535Z,39.53
2019-04-13T23:37:41.203Z,41.27
2019-04-13T23:40:11.677Z,40.90
2019-04-13T23:42:42.253Z,42.57
2019-04-13T23:45:19.423Z,48.60
2019-04-13T23:47:44.715Z,49.93
2019-04-13T23:50:14.125Z,41.27
2019-04-13T23:52:45.796Z,66.83
2019-04-13T23:55:16.154Z,48.27
2019-04-13T23:57:55.351Z,41.03
